Nearby METAR Reports

 

KSJC - San Jose, California, USA
Distance from station: NE 14km
Updated: 05/07/2022 06:53
Mostly cloudy
Mostly cloudy
 Wind from N
Wind: N 17 km/h
Temperature: 21°C
Dew Point: 16°C
Humidity: 73%
Barometer: 1014.6 hPa
Clouds: Mostly cloudy
Visibility: 16 km
Cloud details: Few Clouds 732 m
Mostly cloudy 2743 m
2022/07/05 04:53 KSJC 050453Z 36009KT 10SM FEW024 BKN090 21/16 A2996 RMK AO2 SLP144 T02060156
KNUQ - Moffett Nas/Mtn, California, USA
Distance from station: N 14km
Updated: 28/06/2022 13:55
NOT Current

 Wind from calm
Wind: Calm
Temperature: 15°C
Dew Point: 12°C
Humidity: 82%
Barometer: 1017.9 hPa
Visibility: 16 km
2022/06/28 11:55 KNUQ 281155Z AUTO 00000KT 10SM 15/12 A3006 RMK AO2
 
KPAO - Palo Alto, California, USA
Distance from station: NNW 23km
Updated: 05/07/2022 01:47
NOT Current
Mostly cloudy
Mostly cloudy
 Wind from NNW
Wind: NNW 24 km/h
Temperature: 22°C
Dew Point: 16°C
Humidity: 69%
Barometer: 1014.2 hPa
Clouds: Mostly cloudy
Visibility: 16 km
Cloud details: Partly cloudy 914 m
Mostly cloudy 3658 m
2022/07/04 23:47 KPAO 042347Z 34013KT 10SM SCT030 BKN120 22/16 A2995
KRHV - San Jose/Reid, California, USA
Distance from station: ENE 19km
Updated: 05/07/2022 06:50
Mostly cloudy
Mostly cloudy
 Wind from NNW
Wind: NNW 19 km/h
Temperature: 21°C
Dew Point: 15°C
Humidity: 69%
Barometer: 1014.9 hPa
Clouds: Mostly cloudy
Visibility: 16 km
Cloud details: Mostly cloudy 2743 m
2022/07/05 04:50 KRHV 050450Z 34010KT 10SM BKN090 21/15 A2997
 
KOAK - Oakland, California, USA
Distance from station: NNW 50km
Updated: 05/07/2022 06:53
Mostly cloudy
Mostly cloudy
 Wind from NNW
Wind: NNW 11 km/h
Temperature: 17°C
Dew Point: 16°C
Humidity: 94%
Barometer: 1015.2 hPa
Clouds: Mostly cloudy
Visibility: 16 km
Cloud details: Few Clouds 427 m
Partly cloudy 732 m
Mostly cloudy 1829 m
2022/07/05 04:53 KOAK 050453Z 34006KT 10SM FEW014 SCT024 BKN060 17/16 A2998 RMK AO2 SLP149 T01720156
KSQL - San Carlos Airpo, California, USA
Distance from station: NW 34km
Updated: 05/07/2022 07:35
Overcast
Overcast
 Wind from calm
Wind: Calm
Temperature: 19°C
Dew Point: 16°C
Humidity: 83%
Barometer: 1015.2 hPa
Clouds: Overcast
Visibility: 16 km
Cloud details: Overcast 2743 m
2022/07/05 05:35 KSQL 050535Z AUTO 00000KT 10SM OVC090 19/16 A2998 RMK AO2
 
KSFO - San Francisco, California, USA
Distance from station: NW 49km
Updated: 05/07/2022 06:56
Mostly cloudy
Mostly cloudy
 Wind from N
Wind: N 11 km/h
Temperature: 20°C
Dew Point: 16°C
Humidity: 78%
Barometer: 1014.6 hPa
Clouds: Mostly cloudy
Visibility: 16 km
Cloud details: Few Clouds 244 m
Partly cloudy 1676 m
Mostly cloudy 2743 m
2022/07/05 04:56 KSFO 050456Z 35006KT 10SM FEW008 SCT055 BKN090 20/16 A2996 RMK AO2 SLP146 T02000156
KE16 - San Martin, California, USA
Distance from station: ESE 43km
Updated: 05/07/2022 07:35
Few Clouds
Few Clouds
 Wind from SE
Wind: SE 15 km/h
Temperature: 18°C
Dew Point: 14°C
Humidity: 78%
Barometer: 1015.9 hPa
Clouds: Few Clouds
Visibility: 16 km
Cloud details: Few Clouds 945 m
2022/07/05 05:35 KE16 050535Z AUTO 13008KT 10SM FEW031 18/14 A3000 RMK AO2 PWINO PNO
 
KWVI - Watsonville, California, USA
Distance from station: SSE 44km
Updated: 05/07/2022 07:35
Mist, Overcast
Mist, Overcast
 Wind from WSW
Wind: WSW 6 km/h
Temperature: 14°C
Dew Point: 14°C
Humidity: 100%
Barometer: 1015.9 hPa
Summary: Mist
Clouds: Overcast
Visibility: 8 km
Cloud details: Mostly cloudy 213 m
Overcast 305 m
2022/07/05 05:35 KWVI 050535Z AUTO 24003KT 5SM BR BKN007 OVC010 14/14 A3000 RMK AO2 CIG 002V008 T01440144
KHAF - Half Moon Bay, California, USA
Distance from station: WNW 50km
Updated: 05/07/2022 07:35
Mist, Overcast
Mist, Overcast
 Wind from SSE
Wind: SSE 6 km/h
Temperature: 16°C
Dew Point: 16°C
Humidity: 100%
Barometer: 1015.6 hPa
Summary: Mist
Clouds: Overcast
Visibility: 0.8 km
Cloud details: Overcast 61 m
2022/07/05 05:35 KHAF 050535Z AUTO 15003KT 1/2SM BR OVC002 16/16 A2999 RMK AO2
 
KHWD - Hayward, California, USA
Distance from station: N 44km
Updated: 05/07/2022 06:54
Overcast
Overcast
 Wind from NW
Wind: NW 9 km/h
Temperature: 18°C
Dew Point: 15°C
Humidity: 83%
Barometer: 1014.9 hPa
Clouds: Overcast
Visibility: 16 km
Cloud details: Overcast 2896 m
2022/07/05 04:54 KHWD 050454Z AUTO 31005KT 10SM OVC095 18/15 A2997 RMK AO2 SLP157 T01830150
KLVK - Livermore, California, USA
Distance from station: NNE 51km
Updated: 05/07/2022 06:53
Overcast
Overcast
 Wind from WNW
Wind: WNW 15 km/h
Temperature: 19°C
Dew Point: 15°C
Humidity: 78%
Barometer: 1014.6 hPa
Clouds: Overcast
Visibility: 16 km
Cloud details: Overcast 2743 m
2022/07/05 04:53 KLVK 050453Z AUTO 30008KT 10SM OVC090 19/15 A2996 RMK AO2 SLP141 T01940150